To NAV CANADA Home Page Login to a new session Search on AWWS site Feedback and Comments Disclaimer Vers la page française équivalente Tips FAQ What's new on the site To the Forecasts and Observations / NOTAM section To "File a Flight Plan" website Publications and other links Update of the User's profile FIC Telephone Numbers My Weather Data Folder Route Weather Data Regional Weather Data Local Weather Data To the Forecasts and Observations / NOTAM section
Request Generated 07/01/2015 at 06:29:54 UTC . Weather information available at that time is displayed.

METAR/TAF

ST. JOHN'S/ST. JOHN'S INTL/NL    

METAR CYYT 010600Z 25011KT 15SM BKN005 11/10 A2993 RMK SF7 SLP136=
SPECI CYYT 010519Z 25010G15KT 15SM BKN005 11/11 A2993 RMK SF5 SLP135=
METAR CYYT 010500Z 24013G19KT 12SM OVC003 11/11 A2993 RMK SF8 SLP136=
SPECI CYYT 010414Z 25010KT 15SM BKN005 11/11 A2993 RMK SF6 SLP136=
METAR CYYT 010400Z 27007KT 15SM FEW008 SCT220 11/11 A2993 RMK SF2CI1
SLP138=

TAF CYYT 010538Z 0106/0206 25012KT 4SM BR BKN005 TEMPO 0106/0112 P6SM
NSW SCT005 PROB30 0106/0110 3/4SM BR BKN003
FM011200 29012KT P6SM BKN025
BECMG 0116/0118 32008KT
BECMG 0122/0124 13008KT
RMK NXT FCST BY 011200Z=
Your time UTC time
Weather data provided by Environment Canada and NAV CANADA